createdAt,value
2018-06-20T00:01:32.696Z,91.10
2018-06-20T00:04:00.863Z,91.00
2018-06-20T00:06:31.207Z,91.10
2018-06-20T00:08:59.415Z,91.30
2018-06-20T00:11:27.570Z,91.60
2018-06-20T00:13:55.823Z,91.60
2018-06-20T00:16:24.416Z,91.70
2018-06-20T00:18:52.592Z,92.60
2018-06-20T00:21:20.740Z,92.60
2018-06-20T00:23:48.872Z,92.50
2018-06-20T00:26:17.047Z,92.50
2018-06-20T00:28:45.241Z,93.10
2018-06-20T00:31:13.379Z,93.40
2018-06-20T00:33:41.523Z,92.80
2018-06-20T00:36:09.652Z,92.70
2018-06-20T00:38:37.807Z,93.00
2018-06-20T00:41:06.121Z,93.20
2018-06-20T00:43:34.378Z,93.50
2018-06-20T00:46:02.520Z,92.90
2018-06-20T00:48:30.675Z,92.70
2018-06-20T00:50:58.819Z,93.00
2018-06-20T00:53:27.052Z,92.80
2018-06-20T00:56:06.553Z,92.60
2018-06-20T00:58:34.707Z,92.80
2018-06-20T01:01:02.859Z,93.10
2018-06-20T01:08:26.903Z,93.00
2018-06-20T01:10:55.053Z,93.20
2018-06-20T01:13:23.208Z,93.10
2018-06-20T01:15:51.343Z,93.10
2018-06-20T01:18:19.507Z,93.50
2018-06-20T01:20:47.661Z,93.80
2018-06-20T01:23:15.808Z,93.90
2018-06-20T01:25:48.446Z,93.80
2018-06-20T01:28:17.352Z,93.60
2018-06-20T01:30:45.501Z,93.80
2018-06-20T01:33:13.644Z,93.90
2018-06-20T01:35:42.079Z,93.60
2018-06-20T01:38:10.231Z,93.40
2018-06-20T01:40:38.465Z,93.30
2018-06-20T01:43:06.792Z,93.30
2018-06-20T01:45:34.996Z,93.40
2018-06-20T01:48:03.135Z,93.50
2018-06-20T01:50:31.324Z,93.50
2018-06-20T01:53:00.548Z,93.50
2018-06-20T01:55:28.804Z,93.50
2018-06-20T01:57:57.563Z,93.90
2018-06-20T02:00:26.277Z,93.30
2018-06-20T02:02:54.956Z,93.50
2018-06-20T02:05:23.609Z,93.50
2018-06-20T02:07:51.735Z,93.30
2018-06-20T02:10:20.523Z,93.50
2018-06-20T02:12:48.669Z,93.50
2018-06-20T02:15:17.179Z,94.00
2018-06-20T02:17:45.573Z,93.70
2018-06-20T02:20:14.284Z,93.70
2018-06-20T02:22:42.460Z,93.40
2018-06-20T02:25:10.598Z,93.40
2018-06-20T02:27:38.749Z,93.60
2018-06-20T02:30:06.890Z,94.20
2018-06-20T02:32:35.611Z,93.90
2018-06-20T02:35:03.781Z,93.70
2018-06-20T02:37:32.068Z,93.80
2018-06-20T02:40:00.222Z,93.90
2018-06-20T02:42:28.373Z,93.90
2018-06-20T02:44:56.517Z,93.70
2018-06-20T02:47:29.876Z,93.90
2018-06-20T02:49:58.171Z,93.80
2018-06-20T02:52:26.289Z,93.60
2018-06-20T02:54:54.383Z,93.70
2018-06-20T02:57:22.497Z,93.80
2018-06-20T02:59:50.585Z,94.10
2018-06-20T03:02:18.696Z,94.00
2018-06-20T03:04:46.832Z,93.80
2018-06-20T03:07:14.944Z,93.50
2018-06-20T03:09:43.060Z,93.50
2018-06-20T03:12:11.228Z,93.60
2018-06-20T03:14:39.354Z,93.70
2018-06-20T03:17:08.980Z,93.60
2018-06-20T03:19:37.073Z,93.50
2018-06-20T03:22:05.379Z,93.50
2018-06-20T03:24:33.478Z,93.70
2018-06-20T03:27:01.620Z,93.60
2018-06-20T03:29:29.720Z,93.60
2018-06-20T03:31:57.832Z,93.70
2018-06-20T03:34:26.123Z,93.40
2018-06-20T03:36:54.417Z,93.30
2018-06-20T03:39:22.527Z,93.30
2018-06-20T03:41:50.646Z,93.10
2018-06-20T03:44:18.911Z,93.00
2018-06-20T03:46:47.101Z,92.90
2018-06-20T03:49:15.252Z,92.80
2018-06-20T03:51:43.392Z,92.80
2018-06-20T03:54:11.527Z,92.50
2018-06-20T03:56:39.763Z,92.70
2018-06-20T03:59:08.640Z,93.20
2018-06-20T04:01:37.118Z,93.20
2018-06-20T04:04:05.271Z,93.10
2018-06-20T04:06:33.429Z,93.10
2018-06-20T04:09:01.572Z,93.10
2018-06-20T04:11:29.740Z,92.80
2018-06-20T04:13:57.867Z,92.80
2018-06-20T04:16:26.024Z,92.80
2018-06-20T04:18:54.311Z,93.00
2018-06-20T04:21:22.457Z,92.90
2018-06-20T04:23:50.657Z,93.20
2018-06-20T04:28:46.830Z,92.90
2018-06-20T04:31:14.983Z,92.80
2018-06-20T04:33:43.149Z,92.70
2018-06-20T04:36:11.318Z,92.60
2018-06-20T04:38:39.460Z,92.50
2018-06-20T04:50:57.685Z,92.60
2018-06-20T04:53:25.819Z,92.30
2018-06-20T04:55:53.994Z,95.40
2018-06-20T04:58:22.135Z,94.20
2018-06-20T05:00:50.280Z,93.40
2018-06-20T05:03:18.480Z,92.90
2018-06-20T05:05:46.624Z,92.90
2018-06-20T05:08:14.837Z,92.60
2018-06-20T05:10:42.998Z,92.40
2018-06-20T05:15:39.161Z,91.80
2018-06-20T05:18:07.292Z,91.90
2018-06-20T05:20:35.472Z,91.90
2018-06-20T05:23:03.616Z,91.70
2018-06-20T05:25:31.896Z,91.80
2018-06-20T05:28:00.044Z,92.00
2018-06-20T05:30:28.283Z,91.20
2018-06-20T05:32:56.522Z,91.00
2018-06-20T05:35:24.683Z,91.40
2018-06-20T05:37:52.869Z,91.40
2018-06-20T05:40:21.059Z,91.40
2018-06-20T05:42:49.199Z,91.40
2018-06-20T05:45:17.363Z,91.20
2018-06-20T05:47:45.519Z,91.80
2018-06-20T05:50:13.659Z,92.00
2018-06-20T05:52:41.800Z,91.60
2018-06-20T05:55:09.936Z,91.50
2018-06-20T05:57:38.088Z,91.10
2018-06-20T06:00:07.143Z,90.70
2018-06-20T06:02:35.290Z,90.30
2018-06-20T06:05:03.428Z,90.30
2018-06-20T06:07:31.580Z,90.20
2018-06-20T06:10:00.519Z,89.90
2018-06-20T06:12:28.728Z,90.20
2018-06-20T06:14:56.873Z,90.10
2018-06-20T06:17:25.004Z,89.90
2018-06-20T06:19:53.151Z,89.20
2018-06-20T06:22:21.415Z,89.00
2018-06-20T06:24:49.573Z,89.50
2018-06-20T06:29:45.640Z,90.20
2018-06-20T06:32:13.791Z,90.20
2018-06-20T06:34:41.932Z,90.30
2018-06-20T06:37:10.092Z,90.50
2018-06-20T06:39:38.228Z,90.10
2018-06-20T06:42:06.377Z,90.00
2018-06-20T06:44:34.513Z,89.10
2018-06-20T06:47:02.673Z,89.70
2018-06-20T06:49:31.386Z,89.20
2018-06-20T06:51:59.443Z,88.80
2018-06-20T06:54:27.555Z,87.60
2018-06-20T06:56:55.668Z,87.80
2018-06-20T06:59:23.758Z,88.40
2018-06-20T07:01:51.874Z,88.30
2018-06-20T07:04:19.993Z,87.40
2018-06-20T07:06:48.084Z,87.90
2018-06-20T07:09:17.667Z,87.30
2018-06-20T07:11:45.931Z,87.60
2018-06-20T07:14:14.035Z,88.30
2018-06-20T07:16:42.156Z,86.80
2018-06-20T07:19:10.274Z,86.20
2018-06-20T07:21:38.541Z,87.00
2018-06-20T07:24:07.139Z,87.50
2018-06-20T07:26:35.452Z,86.20
2018-06-20T07:29:03.630Z,87.50
2018-06-20T07:31:31.708Z,86.50
2018-06-20T07:33:59.843Z,84.80
2018-06-20T07:36:27.908Z,85.40
2018-06-20T07:38:56.020Z,84.40
2018-06-20T07:41:24.135Z,83.30
2018-06-20T07:43:52.251Z,84.00
2018-06-20T07:46:20.362Z,84.50
2018-06-20T07:48:48.526Z,83.70
2018-06-20T07:51:16.676Z,83.70
2018-06-20T07:53:44.836Z,85.00
2018-06-20T07:56:12.976Z,82.60
2018-06-20T07:58:46.593Z,80.30
2018-06-20T08:01:31.639Z,78.10
2018-06-20T08:06:38.888Z,72.60
2018-06-20T08:09:12.843Z,69.00
2018-06-20T08:11:46.315Z,65.10
2018-06-20T08:14:19.708Z,63.30
2018-06-20T08:16:52.074Z,63.00
2018-06-20T08:19:25.724Z,63.10
2018-06-20T08:21:54.780Z,64.70
2018-06-20T08:24:23.277Z,66.80
2018-06-20T08:26:52.076Z,66.70
2018-06-20T08:29:20.497Z,66.00
2018-06-20T08:31:48.839Z,66.50
2018-06-20T08:34:16.980Z,67.10
2018-06-20T08:36:45.333Z,66.60
2018-06-20T08:39:13.497Z,62.00
2018-06-20T08:41:42.973Z,58.50
2018-06-20T08:44:11.919Z,55.50
2018-06-20T08:46:40.587Z,53.80
2018-06-20T08:49:09.325Z,51.10
2018-06-20T08:51:37.443Z,52.80
2018-06-20T08:54:05.684Z,56.00
2018-06-20T08:56:33.790Z,57.40
2018-06-20T08:59:01.893Z,59.10
2018-06-20T09:01:29.995Z,60.50
2018-06-20T09:04:03.519Z,61.80
2018-06-20T09:06:37.151Z,61.50
2018-06-20T09:09:12.419Z,55.80
2018-06-20T09:11:45.944Z,51.00
2018-06-20T09:14:14.195Z,48.50
2018-06-20T09:17:45.544Z,47.70
2018-06-20T09:20:13.682Z,46.80
2018-06-20T09:22:41.829Z,47.10
2018-06-20T09:27:37.864Z,48.50
2018-06-20T09:30:06.039Z,51.30
2018-06-20T09:32:34.181Z,49.00
2018-06-20T09:35:02.323Z,46.90
2018-06-20T09:37:31.474Z,44.40
2018-06-20T09:39:59.920Z,45.40
2018-06-20T09:42:34.425Z,47.00
2018-06-20T09:45:02.600Z,46.20
2018-06-20T09:47:30.817Z,46.30
2018-06-20T09:50:03.229Z,47.00
2018-06-20T09:54:59.285Z,45.10
2018-06-20T09:57:27.419Z,45.10
2018-06-20T10:00:00.945Z,46.60
2018-06-20T10:02:34.646Z,46.00
2018-06-20T10:05:08.119Z,44.70
2018-06-20T10:07:41.736Z,43.40
2018-06-20T10:10:15.492Z,41.80
2018-06-20T10:12:49.108Z,41.90
2018-06-20T10:15:17.373Z,44.20
2018-06-20T10:17:45.500Z,44.90
2018-06-20T10:20:19.163Z,44.90
2018-06-20T10:22:47.288Z,43.50
2018-06-20T10:25:15.448Z,43.30
2018-06-20T10:27:43.810Z,45.60
2018-06-20T10:30:11.966Z,46.70
2018-06-20T10:32:40.114Z,48.10
2018-06-20T10:35:08.245Z,47.70
2018-06-20T10:37:36.405Z,47.30
2018-06-20T10:40:04.603Z,45.90
2018-06-20T10:42:32.715Z,45.20
2018-06-20T10:45:06.041Z,44.60
2018-06-20T10:47:36.270Z,44.30
2018-06-20T10:50:05.227Z,41.30
2018-06-20T10:52:33.325Z,41.50
2018-06-20T10:55:01.434Z,40.80
2018-06-20T10:57:34.969Z,41.40
2018-06-20T11:00:08.528Z,43.50
2018-06-20T11:02:42.135Z,42.40
2018-06-20T11:05:15.664Z,41.90
2018-06-20T11:07:49.108Z,40.50
2018-06-20T11:10:22.751Z,39.20
2018-06-20T11:12:57.755Z,38.50
2018-06-20T11:15:25.923Z,37.80
2018-06-20T11:17:53.988Z,37.70
2018-06-20T11:20:27.643Z,36.80
2018-06-20T11:22:55.856Z,36.10
2018-06-20T11:25:23.987Z,34.90
2018-06-20T11:27:52.090Z,33.70
2018-06-20T11:30:20.605Z,32.90
2018-06-20T11:32:48.777Z,34.50
2018-06-20T11:35:16.876Z,32.50
2018-06-20T11:37:44.978Z,33.50
2018-06-20T11:40:13.108Z,32.60
2018-06-20T11:42:41.213Z,33.80
2018-06-20T11:45:09.718Z,34.70
2018-06-20T11:47:40.288Z,34.40
2018-06-20T11:50:08.976Z,35.60
2018-06-20T11:52:42.579Z,35.10
2018-06-20T11:57:44.684Z,35.70
2018-06-20T12:00:18.220Z,32.80
2018-06-20T12:02:51.776Z,34.10
2018-06-20T12:05:25.324Z,35.70
2018-06-20T12:07:59.014Z,35.20
2018-06-20T12:10:32.713Z,34.80
2018-06-20T12:13:06.270Z,34.40
2018-06-20T12:15:39.797Z,34.90
2018-06-20T12:20:47.039Z,33.90
2018-06-20T12:23:20.692Z,35.20
2018-06-20T12:25:54.302Z,32.60
2018-06-20T12:28:27.875Z,31.60
2018-06-20T12:31:01.530Z,33.00
2018-06-20T12:33:35.092Z,34.10
2018-06-20T12:36:08.815Z,35.70
2018-06-20T12:39:02.791Z,36.90
2018-06-20T12:41:36.576Z,37.50
2018-06-20T12:44:10.369Z,35.00
2018-06-20T12:46:59.893Z,34.50
2018-06-20T12:49:33.636Z,34.30
2018-06-20T12:52:01.799Z,33.70
2018-06-20T12:54:29.967Z,34.20
2018-06-20T12:56:58.096Z,34.70
2018-06-20T12:59:26.472Z,32.90
2018-06-20T13:01:54.640Z,31.20
2018-06-20T13:04:22.769Z,31.90
2018-06-20T13:06:51.004Z,32.30
2018-06-20T13:09:19.240Z,33.80
2018-06-20T13:11:49.162Z,33.60
2018-06-20T13:14:17.569Z,31.90
2018-06-20T13:16:46.376Z,31.20
2018-06-20T13:19:14.714Z,30.60
2018-06-20T13:21:42.855Z,31.30
2018-06-20T13:24:11.005Z,31.00
2018-06-20T13:26:39.173Z,31.10
2018-06-20T13:29:07.299Z,31.00
2018-06-20T13:31:40.892Z,30.80
2018-06-20T13:34:15.193Z,32.00
2018-06-20T13:36:48.748Z,31.40
2018-06-20T13:39:22.363Z,30.60
2018-06-20T13:41:55.718Z,31.70
2018-06-20T13:44:25.559Z,31.60
2018-06-20T13:46:59.115Z,31.40
2018-06-20T13:49:27.224Z,32.10
2018-06-20T13:51:55.932Z,32.20
2018-06-20T13:54:24.065Z,31.20
2018-06-20T13:56:52.676Z,30.00
2018-06-20T13:59:20.799Z,30.40
2018-06-20T14:01:48.901Z,30.80
2018-06-20T14:04:17.117Z,31.80
2018-06-20T14:06:45.238Z,30.80
2018-06-20T14:09:13.347Z,30.70
2018-06-20T14:11:41.988Z,31.20
2018-06-20T14:14:10.154Z,31.50
2018-06-20T14:16:38.312Z,32.20
2018-06-20T14:19:06.343Z,32.30
2018-06-20T14:21:38.632Z,32.90
2018-06-20T14:24:07.898Z,34.50
2018-06-20T14:26:36.898Z,35.70
2018-06-20T14:29:05.019Z,35.60
2018-06-20T14:33:40.352Z,34.70
2018-06-20T14:38:20.737Z,35.60
2018-06-20T14:40:54.263Z,38.40
2018-06-20T14:43:27.548Z,38.10
2018-06-20T14:46:00.953Z,37.00
2018-06-20T14:48:29.047Z,37.60
2018-06-20T14:50:57.161Z,38.50
2018-06-20T14:53:25.291Z,38.70
2018-06-20T14:55:53.387Z,39.00
2018-06-20T14:58:21.515Z,37.60
2018-06-20T15:00:49.654Z,38.80
2018-06-20T15:03:17.719Z,37.00
2018-06-20T15:05:45.811Z,37.00
2018-06-20T15:08:13.898Z,37.00
2018-06-20T15:10:41.993Z,38.40
2018-06-20T15:13:10.331Z,38.70
2018-06-20T15:15:38.415Z,37.50
2018-06-20T15:18:06.509Z,37.60
2018-06-20T15:20:34.603Z,37.70
2018-06-20T15:23:02.701Z,37.90
2018-06-20T15:25:33.775Z,37.90
2018-06-20T15:28:07.214Z,37.30
2018-06-20T15:30:40.742Z,39.40
2018-06-20T15:33:14.267Z,37.40
2018-06-20T15:37:48.719Z,37.80
2018-06-20T15:40:16.815Z,36.90
2018-06-20T15:42:44.902Z,38.10
2018-06-20T15:45:12.999Z,38.50
2018-06-20T15:47:41.180Z,37.60
2018-06-20T15:50:09.307Z,39.50
2018-06-20T15:52:37.451Z,39.90
2018-06-20T15:55:05.610Z,40.40
2018-06-20T15:57:33.724Z,41.10
2018-06-20T16:00:01.852Z,40.50
2018-06-20T16:02:29.998Z,39.50
2018-06-20T16:04:58.127Z,38.90
2018-06-20T16:07:26.276Z,35.80
2018-06-20T16:09:56.282Z,36.00
2018-06-20T16:12:24.508Z,36.80
2018-06-20T16:14:52.646Z,38.20
2018-06-20T16:17:20.769Z,37.70
2018-06-20T16:19:54.211Z,38.50
2018-06-20T16:22:27.777Z,38.30
2018-06-20T16:26:04.275Z,39.00
2018-06-20T16:28:37.789Z,38.70
2018-06-20T16:31:05.955Z,38.50
2018-06-20T16:33:34.104Z,39.40
2018-06-20T16:36:02.275Z,38.90
2018-06-20T16:38:30.416Z,38.70
2018-06-20T16:40:58.628Z,39.10
2018-06-20T16:43:26.804Z,39.70
2018-06-20T16:45:54.939Z,39.20
2018-06-20T16:48:23.092Z,39.10
2018-06-20T16:50:51.232Z,39.40
2018-06-20T16:53:19.383Z,38.60
2018-06-20T16:55:47.516Z,37.70
2018-06-20T16:58:15.666Z,39.00
2018-06-20T17:00:43.824Z,39.20
2018-06-20T17:03:11.969Z,38.60
2018-06-20T17:05:40.112Z,39.10
2018-06-20T17:08:08.249Z,39.10
2018-06-20T17:10:36.545Z,40.40
2018-06-20T17:13:10.161Z,39.00
2018-06-20T17:16:42.897Z,38.80
2018-06-20T17:19:16.310Z,39.00
2018-06-20T17:21:49.984Z,40.10
2018-06-20T17:24:23.546Z,40.60
2018-06-20T17:26:51.712Z,40.00
2018-06-20T17:29:19.852Z,39.60
2018-06-20T17:31:47.996Z,39.70
2018-06-20T17:34:16.236Z,40.20
2018-06-20T17:36:44.368Z,41.10
2018-06-20T17:39:12.812Z,40.70
2018-06-20T17:41:40.948Z,40.60
2018-06-20T17:44:09.141Z,40.30
2018-06-20T17:46:37.288Z,40.60
2018-06-20T17:49:05.407Z,40.50
2018-06-20T17:51:33.523Z,41.90
2018-06-20T17:54:01.629Z,41.40
2018-06-20T17:56:29.790Z,41.30
2018-06-20T17:58:57.883Z,40.80
2018-06-20T18:01:26.841Z,41.60
2018-06-20T18:03:54.939Z,41.20
2018-06-20T18:06:28.624Z,41.80
2018-06-20T18:09:02.020Z,41.60
2018-06-20T18:11:35.459Z,41.30
2018-06-20T18:14:09.108Z,42.10
2018-06-20T18:16:42.560Z,41.80
2018-06-20T18:19:10.872Z,41.30
2018-06-20T18:21:39.104Z,42.80
2018-06-20T18:24:07.268Z,42.40
2018-06-20T18:26:35.410Z,41.70
2018-06-20T18:29:03.552Z,41.50
2018-06-20T18:31:32.300Z,42.00
2018-06-20T18:34:00.418Z,42.80
2018-06-20T18:36:28.546Z,42.60
2018-06-20T18:38:56.682Z,42.00
2018-06-20T18:41:24.812Z,42.20
2018-06-20T18:43:53.075Z,42.80
2018-06-20T18:46:21.198Z,42.90
2018-06-20T18:48:49.420Z,43.40
2018-06-20T18:51:17.620Z,42.10
2018-06-20T18:53:45.647Z,43.70
2018-06-20T18:56:13.781Z,43.30
2018-06-20T18:58:47.349Z,43.80
2018-06-20T19:01:20.934Z,44.20
2018-06-20T19:03:54.412Z,44.30
2018-06-20T19:06:28.112Z,44.50
2018-06-20T19:08:59.723Z,44.90
2018-06-20T19:11:27.850Z,45.90
2018-06-20T19:13:55.992Z,46.40
2018-06-20T19:16:24.131Z,45.90
2018-06-20T19:18:52.292Z,47.00
2018-06-20T19:21:20.436Z,46.60
2018-06-20T19:23:48.582Z,46.70
2018-06-20T19:28:44.684Z,47.60
2018-06-20T19:31:12.842Z,48.30
2018-06-20T19:33:41.001Z,48.50
2018-06-20T19:36:09.172Z,49.10
2018-06-20T19:38:37.312Z,49.00
2018-06-20T19:41:05.483Z,49.00
2018-06-20T19:43:34.575Z,50.40
2018-06-20T19:46:02.727Z,50.40
2018-06-20T19:48:30.847Z,50.10
2018-06-20T19:50:58.968Z,51.10
2018-06-20T19:53:27.607Z,50.20
2018-06-20T19:55:55.707Z,51.40
2018-06-20T19:58:23.820Z,51.20
2018-06-20T20:00:52.011Z,51.90
2018-06-20T20:03:20.147Z,51.90
2018-06-20T20:05:48.260Z,52.10
2018-06-20T20:08:16.366Z,51.80
2018-06-20T20:10:44.473Z,51.70
2018-06-20T20:13:12.600Z,52.50
2018-06-20T20:15:40.690Z,52.60
2018-06-20T20:18:08.812Z,52.20
2018-06-20T20:20:37.050Z,53.00
2018-06-20T20:23:05.266Z,52.10
2018-06-20T20:25:33.588Z,52.80
2018-06-20T20:28:01.647Z,52.60
2018-06-20T20:30:29.741Z,52.70
2018-06-20T20:32:57.864Z,52.70
2018-06-20T20:35:25.973Z,52.60
2018-06-20T20:37:54.055Z,53.50
2018-06-20T20:40:22.184Z,53.50
2018-06-20T20:45:18.272Z,53.70
2018-06-20T20:47:46.412Z,53.70
2018-06-20T20:52:42.507Z,54.90
2018-06-20T20:55:11.388Z,55.60
2018-06-20T20:57:39.527Z,55.80
2018-06-20T21:00:07.984Z,55.00
2018-06-20T21:02:36.141Z,54.90
2018-06-20T21:05:04.430Z,54.90
2018-06-20T21:07:32.605Z,55.20
2018-06-20T21:10:00.769Z,55.10
2018-06-20T21:12:28.915Z,55.10
2018-06-20T21:14:57.099Z,55.40
2018-06-20T21:17:25.239Z,55.40
2018-06-20T21:19:53.498Z,55.30
2018-06-20T21:22:21.847Z,56.20
2018-06-20T21:24:50.012Z,56.60
2018-06-20T21:27:19.373Z,56.40
2018-06-20T21:29:47.548Z,56.90
2018-06-20T21:32:15.723Z,57.10
2018-06-20T21:34:43.916Z,57.10
2018-06-20T21:37:12.142Z,56.70
2018-06-20T21:39:40.711Z,56.60
2018-06-20T21:42:08.881Z,57.30
2018-06-20T21:44:37.106Z,57.20
2018-06-20T21:47:05.256Z,57.00
2018-06-20T21:49:33.365Z,57.90
2018-06-20T21:52:01.469Z,58.00
2018-06-20T21:54:29.612Z,57.40
2018-06-20T21:56:57.725Z,58.30
2018-06-20T21:59:25.818Z,57.70
2018-06-20T22:01:53.944Z,57.70
2018-06-20T22:04:22.202Z,58.10
2018-06-20T22:06:50.316Z,58.60
2018-06-20T22:09:18.416Z,57.70
2018-06-20T22:11:46.516Z,57.90
2018-06-20T22:14:14.684Z,58.80
2018-06-20T22:16:42.816Z,58.00
2018-06-20T22:19:11.472Z,59.00
2018-06-20T22:21:39.596Z,58.60
2018-06-20T22:24:07.709Z,58.60
2018-06-20T22:26:35.843Z,58.00
2018-06-20T22:31:31.950Z,59.20
2018-06-20T22:34:00.058Z,58.90
2018-06-20T22:36:28.188Z,59.10
2018-06-20T22:38:56.340Z,58.90
2018-06-20T22:41:24.498Z,59.40
2018-06-20T22:43:52.587Z,59.50
2018-06-20T22:46:20.701Z,60.00
2018-06-20T22:48:48.812Z,59.40
2018-06-20T22:51:16.916Z,59.70
2018-06-20T22:53:45.118Z,59.90
2018-06-20T22:56:13.234Z,60.90
2018-06-20T22:58:41.342Z,60.50
2018-06-20T23:01:09.532Z,61.60
2018-06-20T23:03:37.760Z,61.20
2018-06-20T23:06:06.027Z,61.10
2018-06-20T23:11:02.108Z,61.90
2018-06-20T23:13:30.219Z,63.40
2018-06-20T23:15:58.512Z,62.80
2018-06-20T23:18:26.681Z,63.50
2018-06-20T23:20:54.952Z,64.60
2018-06-20T23:23:23.060Z,64.20
2018-06-20T23:25:51.177Z,65.40
2018-06-20T23:28:19.381Z,65.00
2018-06-20T23:30:47.653Z,64.10
2018-06-20T23:33:15.788Z,64.50
2018-06-20T23:35:43.908Z,64.60
2018-06-20T23:38:12.026Z,65.40
2018-06-20T23:40:40.149Z,64.70
2018-06-20T23:43:08.280Z,64.50
2018-06-20T23:45:36.388Z,65.80
2018-06-20T23:48:04.540Z,64.60
2018-06-20T23:50:32.713Z,65.30
2018-06-20T23:53:00.868Z,65.50
2018-06-20T23:55:29.002Z,65.30
2018-06-20T23:57:57.164Z,65.60
